Time;durP1;ratioP1;P1;durP2;ratioP2;P2;SDS_P1;SDS_P2;PMS_P1;PMS_P2;Temp;Humidity;BMP_temperature;BMP_pressure;BME280_temperature;BME280_humidity;BME280_pressure;Samples;Min_cycle;Max_cycle;Signal;HPM_P1;HPM_P2
2023/08/23 00:01:53;;;;;;;219.73;83.90;;;;;;;;;;5071706;28;20196;-50
2023/08/23 00:04:19;;;;;;;229.10;103.53;;;;;;;;;;5071619;28;20431;-50
2023/08/23 00:06:46;;;;;;;224.87;90.57;;;;;;;;;;5071949;28;20405;-51
2023/08/23 00:09:12;;;;;;;224.75;89.88;;;;;;;;;;5071678;28;20457;-50
2023/08/23 00:11:38;;;;;;;226.67;93.67;;;;;;;;;;5071468;28;20172;-51
2023/08/23 00:14:04;;;;;;;221.93;87.97;;;;;;;;;;5071911;28;20774;-51
2023/08/23 00:16:30;;;;;;;228.80;97.50;;;;;;;;;;5073131;28;20646;-50
2023/08/23 00:18:56;;;;;;;227.80;100.50;;;;;;;;;;5070416;28;20412;-50
2023/08/23 00:21:22;;;;;;;233.07;104.30;;;;;;;;;;5070335;28;20409;-52
2023/08/23 00:23:48;;;;;;;226.07;96.93;;;;;;;;;;5071331;28;20440;-51
2023/08/23 00:26:14;;;;;;;224.27;91.63;;;;;;;;;;5071756;28;20776;-52
2023/08/23 00:28:41;;;;;;;222.90;92.25;;;;;;;;;;5071337;28;20513;-53
2023/08/23 00:31:07;;;;;;;222.95;92.05;;;;;;;;;;5071440;28;20186;-50
2023/08/23 00:33:33;;;;;;;222.75;89.28;;;;;;;;;;5071557;28;20221;-50
2023/08/23 00:35:59;;;;;;;224.37;92.60;;;;;;;;;;5071670;28;20199;-51
2023/08/23 00:38:25;;;;;;;220.70;87.03;;;;;;;;;;5071893;28;20490;-50
2023/08/23 00:40:51;;;;;;;239.45;119.13;;;;;;;;;;5071658;28;20397;-50
2023/08/23 00:43:17;;;;;;;229.70;104.77;;;;;;;;;;5071559;28;20560;-50
2023/08/23 00:45:43;;;;;;;230.27;104.50;;;;;;;;;;5071661;28;20413;-51
2023/08/23 00:48:09;;;;;;;230.07;102.05;;;;;;;;;;5071611;28;20405;-51
2023/08/23 00:50:36;;;;;;;226.03;97.83;;;;;;;;;;5071372;28;20633;-50
2023/08/23 00:53:02;;;;;;;224.03;88.77;;;;;;;;;;5071478;28;20413;-50
2023/08/23 00:55:28;;;;;;;222.82;85.60;;;;;;;;;;5071522;28;20435;-51
2023/08/23 00:57:55;;;;;;;233.37;115.67;;;;;;;;;;5071538;28;20254;-52
2023/08/23 01:00:21;;;;;;;224.50;92.43;;;;;;;;;;5071286;28;20405;-51
2023/08/23 01:02:47;;;;;;;226.07;94.03;;;;;;;;;;5070653;28;20946;-52
2023/08/23 01:05:13;;;;;;;221.27;82.50;;;;;;;;;;5070925;28;20408;-51
2023/08/23 01:07:50;;;;;;;221.10;84.80;;;;;;;;;;5071171;28;20172;-52
2023/08/23 01:10:30;;;;;;;223.73;86.77;;;;;;;;;;5071092;28;20475;-51
2023/08/23 01:12:59;;;;;;;230.20;101.77;;;;;;;;;;5071217;28;20410;-53
2023/08/23 01:15:25;;;;;;;221.80;87.05;;;;;;;;;;5071151;28;20394;-51
2023/08/23 01:17:51;;;;;;;219.00;78.37;;;;;;;;;;5071340;28;20170;-51
2023/08/23 01:20:17;;;;;;;223.67;88.67;;;;;;;;;;5070993;28;20488;-51
2023/08/23 01:22:48;;;;;;;223.87;91.50;;;;;;;;;;5071350;28;20430;-50
2023/08/23 01:25:15;;;;;;;222.37;86.87;;;;;;;;;;5071815;28;20468;-54
2023/08/23 01:27:41;;;;;;;223.27;86.87;;;;;;;;;;5071211;28;20491;-55
2023/08/23 01:30:07;;;;;;;222.47;87.17;;;;;;;;;;5070838;28;20535;-53
2023/08/23 01:32:35;;;;;;;223.77;87.73;;;;;;;;;;5073927;28;20417;-53
2023/08/23 01:35:11;;;;;;;228.47;99.63;;;;;;;;;;5074853;28;20907;-53
2023/08/23 01:37:39;;;;;;;226.43;96.78;;;;;;;;;;5074682;28;20812;-54
2023/08/23 01:40:07;;;;;;;231.97;106.40;;;;;;;;;;5074407;28;20171;-53
2023/08/23 01:42:33;;;;;;;226.80;96.37;;;;;;;;;;5074533;28;20456;-53
2023/08/23 01:44:59;;;;;;;225.90;92.87;;;;;;;;;;5074683;28;20410;-53
2023/08/23 01:47:25;;;;;;;222.23;85.78;;;;;;;;;;5074641;28;20407;-54
2023/08/23 01:49:51;;;;;;;227.43;92.97;;;;;;;;;;5074096;28;20552;-54
2023/08/23 01:52:17;;;;;;;226.05;94.43;;;;;;;;;;5087437;28;20825;-54
2023/08/23 01:54:43;;;;;;;231.87;112.90;;;;;;;;;;5094613;28;20671;-53
2023/08/23 01:57:09;;;;;;;227.67;99.30;;;;;;;;;;5094552;28;20439;-52
2023/08/23 01:59:37;;;;;;;230.40;105.67;;;;;;;;;;5094624;28;20400;-52
2023/08/23 02:02:02;;;;;;;227.30;97.10;;;;;;;;;;5094589;28;20424;-52
2023/08/23 02:04:28;;;;;;;231.30;104.50;;;;;;;;;;5094520;28;20434;-54
2023/08/23 02:06:54;;;;;;;226.20;96.27;;;;;;;;;;5094482;28;20426;-54
2023/08/23 02:09:20;;;;;;;228.53;97.57;;;;;;;;;;5094239;28;20525;-53
2023/08/23 02:11:46;;;;;;;224.97;89.87;;;;;;;;;;5094098;28;20425;-53
2023/08/23 02:14:12;;;;;;;224.00;87.13;;;;;;;;;;5094308;28;20403;-53
2023/08/23 02:16:38;;;;;;;236.33;114.20;;;;;;;;;;5094554;28;20899;-54
2023/08/23 02:19:04;;;;;;;228.57;101.43;;;;;;;;;;5094340;28;20410;-54
2023/08/23 02:21:30;;;;;;;231.57;103.10;;;;;;;;;;5093932;28;20404;-53
2023/08/23 02:23:56;;;;;;;229.32;99.85;;;;;;;;;;5094146;28;20443;-53
2023/08/23 02:26:22;;;;;;;226.10;91.87;;;;;;;;;;5093989;28;20281;-53
2023/08/23 02:28:48;;;;;;;229.47;98.80;;;;;;;;;;5093908;28;20410;-53
2023/08/23 02:31:14;;;;;;;226.23;93.87;;;;;;;;;;5093774;28;20413;-54
2023/08/23 02:33:40;;;;;;;228.53;94.83;;;;;;;;;;5093878;28;20420;-54
2023/08/23 02:36:06;;;;;;;233.53;107.73;;;;;;;;;;5093925;28;20393;-53
2023/08/23 02:38:32;;;;;;;233.63;103.40;;;;;;;;;;5093728;28;20425;-53
2023/08/23 02:40:58;;;;;;;235.30;116.03;;;;;;;;;;5093509;28;20407;-54
2023/08/23 02:43:24;;;;;;;229.70;97.97;;;;;;;;;;5092751;28;20424;-53
2023/08/23 02:45:50;;;;;;;222.03;85.60;;;;;;;;;;5093847;28;20448;-53
2023/08/23 02:48:16;;;;;;;226.80;93.97;;;;;;;;;;5093745;28;20438;-53
2023/08/23 02:50:43;;;;;;;229.87;100.13;;;;;;;;;;5093136;28;20479;-54
2023/08/23 02:53:10;;;;;;;228.37;95.67;;;;;;;;;;5053162;28;20424;-53
2023/08/23 02:55:36;;;;;;;228.33;90.93;;;;;;;;;;5053046;28;20511;-54
2023/08/23 02:58:03;;;;;;;224.75;86.78;;;;;;;;;;5053235;28;20759;-54
2023/08/23 03:00:29;;;;;;;228.45;96.80;;;;;;;;;;5053041;28;20599;-53
2023/08/23 03:02:55;;;;;;;225.67;93.07;;;;;;;;;;5053106;28;20196;-54
2023/08/23 03:05:21;;;;;;;239.07;109.70;;;;;;;;;;5052971;28;20485;-53
2023/08/23 03:07:47;;;;;;;248.00;133.20;;;;;;;;;;5068434;28;20428;-53
2023/08/23 03:10:13;;;;;;;235.13;110.82;;;;;;;;;;5072429;28;20464;-54
2023/08/23 03:12:39;;;;;;;240.57;119.10;;;;;;;;;;5076626;28;20201;-53
2023/08/23 03:15:05;;;;;;;235.80;109.27;;;;;;;;;;5071417;28;20404;-52
2023/08/23 03:17:31;;;;;;;238.68;115.70;;;;;;;;;;5072453;28;20443;-53
2023/08/23 03:19:58;;;;;;;235.57;105.47;;;;;;;;;;5072337;28;20176;-53
2023/08/23 03:22:24;;;;;;;234.47;103.07;;;;;;;;;;5072351;28;20804;-53
2023/08/23 03:24:50;;;;;;;231.10;101.03;;;;;;;;;;5072384;28;20823;-53
2023/08/23 03:27:16;;;;;;;231.13;95.27;;;;;;;;;;5071050;28;20267;-53
2023/08/23 03:29:48;;;;;;;236.30;106.47;;;;;;;;;;5072191;28;20807;-53
2023/08/23 03:32:17;;;;;;;231.45;99.57;;;;;;;;;;5072268;28;20198;-54
2023/08/23 03:34:43;;;;;;;231.30;97.67;;;;;;;;;;5064439;28;20177;-53
2023/08/23 03:37:09;;;;;;;239.93;114.80;;;;;;;;;;5072151;28;20451;-53
2023/08/23 03:39:35;;;;;;;235.07;107.00;;;;;;;;;;5071993;28;20519;-53
2023/08/23 03:42:01;;;;;;;239.23;115.75;;;;;;;;;;5071996;28;20568;-54
2023/08/23 03:44:27;;;;;;;240.63;117.27;;;;;;;;;;5070997;28;20181;-52
2023/08/23 03:46:53;;;;;;;242.93;127.53;;;;;;;;;;5072103;28;20407;-53
2023/08/23 03:49:19;;;;;;;235.93;104.77;;;;;;;;;;5071831;28;20546;-53
2023/08/23 03:51:45;;;;;;;242.70;114.80;;;;;;;;;;5071554;28;20422;-53
2023/08/23 03:54:11;;;;;;;238.80;109.33;;;;;;;;;;5071820;28;20468;-53
2023/08/23 03:56:36;;;;;;;240.83;116.40;;;;;;;;;;5071935;28;20483;-53
2023/08/23 03:59:02;;;;;;;241.03;117.67;;;;;;;;;;5072017;28;20812;-52
2023/08/23 04:01:28;;;;;;;236.63;105.33;;;;;;;;;;5078252;28;20884;-53
2023/08/23 04:03:54;;;;;;;237.75;110.07;;;;;;;;;;5071785;28;20467;-53
2023/08/23 04:06:20;;;;;;;261.17;145.00;;;;;;;;;;5071830;28;20181;-53
2023/08/23 04:08:47;;;;;;;227.93;91.33;;;;;;;;;;5071638;28;20408;-53
2023/08/23 04:11:13;;;;;;;232.68;98.50;;;;;;;;;;5071574;28;20406;-53
2023/08/23 04:13:39;;;;;;;234.33;107.67;;;;;;;;;;5063375;28;20576;-53
2023/08/23 04:16:05;;;;;;;239.57;115.03;;;;;;;;;;5072253;28;20804;-53
2023/08/23 04:18:31;;;;;;;235.70;106.93;;;;;;;;;;5072190;28;20817;-53
2023/08/23 04:21:01;;;;;;;240.90;114.60;;;;;;;;;;5071465;28;20819;-53
2023/08/23 04:23:27;;;;;;;239.63;114.20;;;;;;;;;;5071422;28;20440;-53
2023/08/23 04:25:53;;;;;;;242.48;121.97;;;;;;;;;;5071562;28;20432;-53
2023/08/23 04:28:19;;;;;;;248.07;133.23;;;;;;;;;;5071629;28;20208;-53
2023/08/23 04:30:45;;;;;;;236.17;111.63;;;;;;;;;;5071360;28;20467;-53
2023/08/23 04:33:13;;;;;;;238.90;116.50;;;;;;;;;;5071383;28;20435;-53
2023/08/23 04:35:39;;;;;;;238.18;113.38;;;;;;;;;;5071580;28;20404;-53
2023/08/23 04:38:09;;;;;;;239.70;112.33;;;;;;;;;;5071704;28;20266;-53
2023/08/23 04:40:35;;;;;;;238.40;112.70;;;;;;;;;;5070705;28;20478;-53
2023/08/23 04:43:01;;;;;;;239.88;118.75;;;;;;;;;;5071447;28;20204;-53
2023/08/23 04:45:27;;;;;;;239.37;115.97;;;;;;;;;;5071330;28;20181;-53
2023/08/23 04:47:54;;;;;;;239.87;117.60;;;;;;;;;;5071335;28;20409;-53
2023/08/23 04:50:20;;;;;;;250.32;136.95;;;;;;;;;;5070832;28;20463;-54
2023/08/23 04:52:46;;;;;;;244.80;124.67;;;;;;;;;;5071237;28;20196;-53
2023/08/23 04:55:12;;;;;;;235.30;108.13;;;;;;;;;;5071339;28;20403;-53
2023/08/23 04:57:38;;;;;;;235.47;108.27;;;;;;;;;;5071436;28;20398;-53
2023/08/23 05:00:07;;;;;;;235.67;111.90;;;;;;;;;;5071013;28;20411;-53
2023/08/23 05:02:32;;;;;;;233.80;107.07;;;;;;;;;;5070946;28;20493;-51
2023/08/23 05:05:00;;;;;;;230.67;101.30;;;;;;;;;;5071249;28;20416;-51
2023/08/23 05:07:26;;;;;;;236.75;114.45;;;;;;;;;;5074146;28;20805;-50
2023/08/23 05:09:52;;;;;;;239.87;109.90;;;;;;;;;;5074822;28;20197;-49
2023/08/23 05:12:18;;;;;;;236.23;109.80;;;;;;;;;;5075250;28;20426;-50
2023/08/23 05:14:43;;;;;;;235.17;106.37;;;;;;;;;;5075053;28;20444;-50
2023/08/23 05:17:09;;;;;;;233.33;105.13;;;;;;;;;;5075197;28;20404;-51
2023/08/23 05:19:35;;;;;;;233.27;105.23;;;;;;;;;;5075081;28;20439;-51
2023/08/23 05:22:01;;;;;;;235.93;108.03;;;;;;;;;;5074917;28;20458;-52
2023/08/23 05:24:27;;;;;;;244.90;129.03;;;;;;;;;;5074952;28;20402;-49
2023/08/23 05:26:53;;;;;;;246.80;132.97;;;;;;;;;;5074947;28;20454;-50
2023/08/23 05:29:19;;;;;;;244.83;126.30;;;;;;;;;;5074821;28;20452;-50
2023/08/23 05:31:45;;;;;;;251.47;143.73;;;;;;;;;;5074545;28;20430;-50
2023/08/23 05:34:11;;;;;;;243.77;124.97;;;;;;;;;;5074971;28;20393;-49
2023/08/23 05:36:37;;;;;;;246.57;136.50;;;;;;;;;;5071792;28;20420;-51
2023/08/23 05:39:04;;;;;;;237.93;110.00;;;;;;;;;;5074435;28;20517;-53
2023/08/23 05:41:30;;;;;;;242.37;122.57;;;;;;;;;;5074129;28;20415;-53
2023/08/23 05:43:56;;;;;;;257.30;147.07;;;;;;;;;;5074280;28;20453;-53
2023/08/23 05:46:22;;;;;;;246.10;135.13;;;;;;;;;;5074257;28;20748;-53
2023/08/23 05:48:49;;;;;;;235.40;112.13;;;;;;;;;;5074426;28;20485;-53
2023/08/23 05:51:15;;;;;;;243.17;122.47;;;;;;;;;;5073966;28;20188;-54
2023/08/23 05:53:41;;;;;;;233.15;107.43;;;;;;;;;;5076499;28;20418;-53
2023/08/23 05:56:07;;;;;;;247.57;113.55;;;;;;;;;;5078479;28;20256;-52
2023/08/23 05:58:33;;;;;;;233.90;104.10;;;;;;;;;;5072264;28;20182;-54
2023/08/23 06:00:59;;;;;;;238.93;116.20;;;;;;;;;;5073838;28;20498;-54
2023/08/23 06:03:26;;;;;;;240.50;117.00;;;;;;;;;;5074182;28;20464;-53
2023/08/23 06:05:56;;;;;;;235.70;112.07;;;;;;;;;;5074028;28;20457;-54
2023/08/23 06:08:22;;;;;;;238.77;114.43;;;;;;;;;;5073990;28;20501;-50
2023/08/23 06:10:48;;;;;;;241.97;124.33;;;;;;;;;;5073755;28;20460;-50
2023/08/23 06:13:17;;;;;;;242.10;124.82;;;;;;;;;;5073414;28;20877;-52
2023/08/23 06:15:43;;;;;;;235.27;108.93;;;;;;;;;;5080822;28;20657;-52
2023/08/23 06:18:09;;;;;;;246.70;115.13;;;;;;;;;;5067864;28;20422;-49
2023/08/23 06:20:38;;;;;;;233.07;112.17;;;;;;;;;;5071835;28;20411;-50
2023/08/23 06:23:05;;;;;;;237.85;119.80;;;;;;;;;;5073273;28;20479;-53
2023/08/23 06:25:30;;;;;;;240.17;123.40;;;;;;;;;;5072938;28;20180;-52
2023/08/23 06:27:56;;;;;;;269.30;134.90;;;;;;;;;;5073247;28;20502;-50
2023/08/23 06:30:22;;;;;;;276.17;140.67;;;;;;;;;;5073475;28;20454;-50
2023/08/23 06:32:49;;;;;;;276.83;134.83;;;;;;;;;;5073526;28;20459;-51
2023/08/23 06:35:16;;;;;;;284.80;148.27;;;;;;;;;;5073332;28;20427;-52
2023/08/23 06:37:42;;;;;;;298.10;167.43;;;;;;;;;;5073486;28;20895;-50
2023/08/23 06:40:10;;;;;;;247.70;139.37;;;;;;;;;;5073301;28;20413;-51
2023/08/23 06:42:36;;;;;;;252.77;147.00;;;;;;;;;;5072409;28;20477;-53
2023/08/23 06:45:02;;;;;;;252.00;129.00;;;;;;;;;;5080383;28;20414;-53
2023/08/23 06:47:28;;;;;;;244.00;125.20;;;;;;;;;;5073113;28;20408;-50
2023/08/23 06:49:54;;;;;;;274.90;177.73;;;;;;;;;;5072726;28;20985;-49
2023/08/23 06:52:20;;;;;;;245.37;129.87;;;;;;;;;;5073057;28;20200;-49
2023/08/23 06:54:46;;;;;;;241.27;119.57;;;;;;;;;;5072930;28;20438;-50
2023/08/23 06:57:12;;;;;;;248.23;132.03;;;;;;;;;;5072143;28;20741;-50
2023/08/23 06:59:38;;;;;;;239.40;116.93;;;;;;;;;;5073754;28;20427;-50
2023/08/23 07:02:04;;;;;;;244.67;125.80;;;;;;;;;;5078127;28;20701;-52
2023/08/23 07:04:30;;;;;;;243.47;126.57;;;;;;;;;;5072781;28;20454;-52
2023/08/23 07:06:57;;;;;;;240.00;119.83;;;;;;;;;;5072968;28;20450;-48
2023/08/23 07:09:23;;;;;;;242.77;124.63;;;;;;;;;;5072679;28;20455;-49
2023/08/23 07:11:49;;;;;;;248.23;139.60;;;;;;;;;;5072596;28;20518;-53
2023/08/23 07:14:15;;;;;;;247.67;141.97;;;;;;;;;;5073111;28;20394;-50
2023/08/23 07:16:41;;;;;;;251.97;144.97;;;;;;;;;;5072861;28;20415;-49
2023/08/23 07:19:07;;;;;;;257.90;154.23;;;;;;;;;;5072760;28;20469;-50
2023/08/23 07:21:33;;;;;;;249.67;137.97;;;;;;;;;;5072440;28;20396;-52
2023/08/23 07:23:59;;;;;;;245.97;131.67;;;;;;;;;;5072481;28;20422;-51
2023/08/23 07:26:26;;;;;;;246.63;135.47;;;;;;;;;;5072695;28;20491;-50
2023/08/23 07:28:52;;;;;;;249.67;140.60;;;;;;;;;;5072076;28;20775;-49
2023/08/23 07:31:18;;;;;;;254.57;152.10;;;;;;;;;;5069609;28;20926;-50
2023/08/23 07:33:44;;;;;;;266.20;171.30;;;;;;;;;;5072146;28;20916;-50
2023/08/23 07:36:09;;;;;;;257.10;158.60;;;;;;;;;;5072515;28;20443;-50
2023/08/23 07:38:36;;;;;;;261.50;162.53;;;;;;;;;;5072828;28;20397;-51
2023/08/23 07:41:03;;;;;;;264.50;169.30;;;;;;;;;;5072137;28;20505;-49
2023/08/23 07:43:29;;;;;;;267.47;172.20;;;;;;;;;;5071871;28;20434;-50
2023/08/23 07:45:56;;;;;;;301.10;221.43;;;;;;;;;;5072063;28;20409;-49
2023/08/23 07:48:22;;;;;;;284.33;196.50;;;;;;;;;;5071792;28;20178;-52
2023/08/23 07:50:49;;;;;;;283.50;200.53;;;;;;;;;;5071932;28;20547;-51
2023/08/23 07:53:15;;;;;;;268.93;177.23;;;;;;;;;;5069359;28;20948;-52
2023/08/23 07:55:41;;;;;;;281.27;200.60;;;;;;;;;;5072302;28;20413;-51
2023/08/23 07:58:07;;;;;;;272.03;182.10;;;;;;;;;;5074720;28;20783;-51
2023/08/23 08:00:33;;;;;;;291.93;220.53;;;;;;;;;;5072389;28;20506;-52
2023/08/23 08:02:59;;;;;;;267.83;172.20;;;;;;;;;;5071614;28;20428;-52
2023/08/23 08:05:26;;;;;;;312.67;237.60;;;;;;;;;;5071964;28;20457;-52
2023/08/23 08:07:52;;;;;;;254.23;145.70;;;;;;;;;;5071829;28;20495;-51
2023/08/23 08:10:18;;;;;;;251.60;139.70;;;;;;;;;;5071391;28;20463;-53
2023/08/23 08:12:44;;;;;;;245.73;135.20;;;;;;;;;;5071547;28;20428;-50
2023/08/23 08:15:10;;;;;;;241.27;128.43;;;;;;;;;;5072218;28;20447;-52
2023/08/23 08:17:36;;;;;;;238.57;122.53;;;;;;;;;;5071583;28;20464;-50
2023/08/23 08:20:08;;;;;;;235.80;116.97;;;;;;;;;;5071400;28;20408;-50
2023/08/23 08:22:34;;;;;;;238.87;125.40;;;;;;;;;;5071681;28;20424;-50
2023/08/23 08:25:00;;;;;;;239.60;126.70;;;;;;;;;;5066223;28;20420;-50
2023/08/23 08:27:26;;;;;;;234.73;118.80;;;;;;;;;;5071466;28;20471;-50
2023/08/23 08:29:52;;;;;;;238.33;125.87;;;;;;;;;;5071214;28;20456;-52
2023/08/23 08:32:18;;;;;;;231.83;113.60;;;;;;;;;;5071420;28;20826;-50
2023/08/23 08:34:44;;;;;;;233.40;116.33;;;;;;;;;;5070263;28;20832;-53
2023/08/23 08:37:11;;;;;;;229.00;112.77;;;;;;;;;;5071483;28;20946;-50
2023/08/23 08:39:37;;;;;;;231.10;112.40;;;;;;;;;;5071238;28;20483;-53
2023/08/23 08:42:03;;;;;;;229.60;112.27;;;;;;;;;;5073910;28;20424;-52
2023/08/23 08:44:29;;;;;;;228.63;111.70;;;;;;;;;;5075793;28;20404;-52
2023/08/23 08:46:55;;;;;;;232.03;119.30;;;;;;;;;;5075553;28;20411;-50
2023/08/23 08:49:21;;;;;;;232.00;118.43;;;;;;;;;;5075396;28;20544;-52
2023/08/23 08:51:47;;;;;;;225.00;103.63;;;;;;;;;;5075295;28;20439;-54
2023/08/23 08:54:16;;;;;;;229.07;111.40;;;;;;;;;;5075371;28;20427;-54
2023/08/23 08:56:43;;;;;;;225.40;105.60;;;;;;;;;;5075548;28;20950;-54
2023/08/23 08:59:09;;;;;;;228.67;111.10;;;;;;;;;;5075637;28;20523;-55
2023/08/23 09:01:35;;;;;;;226.50;109.37;;;;;;;;;;5075107;28;20440;-54
2023/08/23 09:04:01;;;;;;;226.47;110.23;;;;;;;;;;5075363;28;20404;-55
2023/08/23 09:06:28;;;;;;;222.37;102.20;;;;;;;;;;5075326;28;20816;-54
2023/08/23 09:08:54;;;;;;;227.10;113.93;;;;;;;;;;5075006;28;20419;-54
2023/08/23 09:11:20;;;;;;;227.30;110.43;;;;;;;;;;5075069;28;20396;-55
2023/08/23 09:13:46;;;;;;;225.87;108.13;;;;;;;;;;5075099;28;20412;-53
2023/08/23 09:16:13;;;;;;;217.70;98.37;;;;;;;;;;5075099;28;20885;-55
2023/08/23 09:18:46;;;;;;;221.77;107.40;;;;;;;;;;5075201;28;20884;-54
2023/08/23 09:21:12;;;;;;;221.97;104.67;;;;;;;;;;5074671;28;20974;-53
2023/08/23 09:23:38;;;;;;;217.90;97.67;;;;;;;;;;5074847;28;20855;-54
2023/08/23 09:26:06;;;;;;;223.63;107.63;;;;;;;;;;5073848;28;20443;-54
2023/08/23 09:28:32;;;;;;;223.83;109.20;;;;;;;;;;5074811;28;20409;-54
2023/08/23 09:30:58;;;;;;;221.07;102.80;;;;;;;;;;5074550;28;20510;-55
2023/08/23 09:33:24;;;;;;;224.17;111.50;;;;;;;;;;5074677;28;20505;-53
2023/08/23 09:35:50;;;;;;;227.53;117.00;;;;;;;;;;5074633;28;20476;-51
2023/08/23 09:38:20;;;;;;;225.33;109.50;;;;;;;;;;5074315;28;20907;-55
2023/08/23 09:40:47;;;;;;;228.00;118.53;;;;;;;;;;5072479;28;20904;-54
2023/08/23 09:43:16;;;;;;;222.70;107.53;;;;;;;;;;5073297;28;20431;-55
2023/08/23 09:45:42;;;;;;;223.43;108.63;;;;;;;;;;5074559;28;20457;-54
2023/08/23 09:48:10;;;;;;;226.50;115.53;;;;;;;;;;5073076;28;20405;-54
2023/08/23 09:50:36;;;;;;;224.57;109.47;;;;;;;;;;5072602;28;20975;-55
2023/08/23 09:53:04;;;;;;;224.67;111.33;;;;;;;;;;5093732;28;20430;-54
2023/08/23 09:55:30;;;;;;;223.27;109.20;;;;;;;;;;5094682;28;20895;-54
2023/08/23 09:57:57;;;;;;;224.03;112.53;;;;;;;;;;5094597;28;20418;-55
2023/08/23 10:00:23;;;;;;;224.53;112.30;;;;;;;;;;5094301;28;20603;-55
2023/08/23 10:02:49;;;;;;;221.80;107.33;;;;;;;;;;5094286;28;20432;-55
2023/08/23 10:05:17;;;;;;;222.33;109.33;;;;;;;;;;5094455;28;20465;-55
2023/08/23 10:07:43;;;;;;;227.00;115.23;;;;;;;;;;5094392;28;20406;-55
2023/08/23 10:10:10;;;;;;;224.53;114.90;;;;;;;;;;5094028;28;20454;-55
2023/08/23 10:12:36;;;;;;;224.87;112.73;;;;;;;;;;5094359;28;20514;-55
2023/08/23 10:15:03;;;;;;;225.53;115.67;;;;;;;;;;5094157;28;20808;-54
2023/08/23 10:17:30;;;;;;;225.10;113.93;;;;;;;;;;5094090;28;20407;-54
2023/08/23 10:19:56;;;;;;;225.27;110.63;;;;;;;;;;5081515;28;20435;-54
2023/08/23 10:22:23;;;;;;;219.50;105.80;;;;;;;;;;5073912;28;20416;-54
2023/08/23 10:24:50;;;;;;;225.27;117.27;;;;;;;;;;5074129;28;20761;-53
2023/08/23 10:27:17;;;;;;;218.27;104.23;;;;;;;;;;5073884;28;20400;-54
2023/08/23 10:29:43;;;;;;;229.53;121.60;;;;;;;;;;5073864;28;20589;-55
2023/08/23 10:32:10;;;;;;;226.60;120.13;;;;;;;;;;5073477;28;20514;-55
2023/08/23 10:34:37;;;;;;;220.33;108.93;;;;;;;;;;5073689;28;20478;-54
2023/08/23 10:37:19;;;;;;;218.10;104.43;;;;;;;;;;5073628;28;20424;-55
2023/08/23 10:39:54;;;;;;;224.63;115.83;;;;;;;;;;5073382;28;20499;-54
2023/08/23 10:42:21;;;;;;;225.73;116.77;;;;;;;;;;5073352;28;20459;-55
2023/08/23 10:44:54;;;;;;;223.00;113.17;;;;;;;;;;5073399;28;20420;-54
2023/08/23 10:47:20;;;;;;;223.03;112.00;;;;;;;;;;5073457;28;20454;-55
2023/08/23 10:49:46;;;;;;;229.07;120.90;;;;;;;;;;5073001;28;20891;-55
2023/08/23 10:52:12;;;;;;;222.73;112.67;;;;;;;;;;5073101;28;20521;-54
2023/08/23 10:54:39;;;;;;;223.23;116.37;;;;;;;;;;5073171;28;20917;-55
2023/08/23 10:57:05;;;;;;;230.23;127.83;;;;;;;;;;5073007;28;20944;-55
2023/08/23 10:59:31;;;;;;;231.73;131.23;;;;;;;;;;5073227;28;20400;-54
2023/08/23 11:01:57;;;;;;;220.77;112.50;;;;;;;;;;5072897;28;20426;-54
2023/08/23 11:04:23;;;;;;;224.47;115.90;;;;;;;;;;5072425;28;20404;-54
2023/08/23 11:06:49;;;;;;;224.20;113.90;;;;;;;;;;5073105;28;20820;-55
2023/08/23 11:09:16;;;;;;;228.30;125.37;;;;;;;;;;5072596;28;20416;-53
2023/08/23 11:11:42;;;;;;;227.67;120.43;;;;;;;;;;5072899;28;20510;-53
2023/08/23 11:14:08;;;;;;;222.07;112.70;;;;;;;;;;5072738;28;20480;-54
2023/08/23 11:16:35;;;;;;;228.73;126.13;;;;;;;;;;5072865;28;20396;-55
2023/08/23 11:19:04;;;;;;;226.67;123.20;;;;;;;;;;5072832;28;20410;-55
2023/08/23 11:21:31;;;;;;;223.37;112.77;;;;;;;;;;5072460;28;20432;-55
2023/08/23 11:23:57;;;;;;;225.27;121.37;;;;;;;;;;5072671;28;21001;-55
2023/08/23 11:26:23;;;;;;;225.67;118.17;;;;;;;;;;5059838;28;20421;-53
2023/08/23 11:28:49;;;;;;;224.00;114.97;;;;;;;;;;5072887;28;20397;-55
2023/08/23 11:31:14;;;;;;;226.60;118.10;;;;;;;;;;5072383;28;20540;-54
2023/08/23 11:33:40;;;;;;;230.10;124.93;;;;;;;;;;5071089;28;20413;-54
2023/08/23 11:36:07;;;;;;;226.47;120.57;;;;;;;;;;5070761;28;20412;-54
2023/08/23 11:38:33;;;;;;;228.07;123.30;;;;;;;;;;5071068;28;20408;-54
2023/08/23 11:40:59;;;;;;;229.57;128.50;;;;;;;;;;5070984;28;20831;-55
2023/08/23 11:43:31;;;;;;;224.43;118.97;;;;;;;;;;5071988;28;20504;-55
2023/08/23 11:45:57;;;;;;;225.93;122.23;;;;;;;;;;5072368;28;20413;-53
2023/08/23 11:48:24;;;;;;;224.57;121.03;;;;;;;;;;5072303;28;20400;-54
2023/08/23 11:50:53;;;;;;;240.13;137.73;;;;;;;;;;5072608;28;20471;-54
2023/08/23 11:53:19;;;;;;;229.40;126.97;;;;;;;;;;5092212;28;20416;-54
2023/08/23 11:55:45;;;;;;;229.43;132.27;;;;;;;;;;5092332;28;20400;-54
2023/08/23 11:58:11;;;;;;;227.57;125.07;;;;;;;;;;5092363;28;20839;-54
2023/08/23 12:00:37;;;;;;;231.27;132.90;;;;;;;;;;5092092;28;20410;-54
2023/08/23 12:03:04;;;;;;;225.13;122.47;;;;;;;;;;5092336;28;20838;-54
2023/08/23 12:05:30;;;;;;;229.33;131.03;;;;;;;;;;5092215;28;20400;-54
2023/08/23 12:07:56;;;;;;;227.57;122.73;;;;;;;;;;5092092;28;20408;-54
2023/08/23 12:10:22;;;;;;;228.80;128.07;;;;;;;;;;5091829;28;20454;-55
2023/08/23 12:12:48;;;;;;;226.10;125.77;;;;;;;;;;5092060;28;20502;-54
2023/08/23 12:15:14;;;;;;;227.97;125.47;;;;;;;;;;5092164;28;20399;-54
2023/08/23 12:17:40;;;;;;;227.83;128.70;;;;;;;;;;5092004;28;20418;-54
2023/08/23 12:20:11;;;;;;;228.23;129.03;;;;;;;;;;5091765;28;20402;-54
2023/08/23 12:22:37;;;;;;;227.50;127.20;;;;;;;;;;5091937;28;20505;-54
2023/08/23 12:25:04;;;;;;;229.47;132.53;;;;;;;;;;5091965;28;20958;-54
2023/08/23 12:27:30;;;;;;;228.07;127.87;;;;;;;;;;5092062;28;20404;-54
2023/08/23 12:29:56;;;;;;;241.97;153.83;;;;;;;;;;5091592;28;20782;-54
2023/08/23 12:32:22;;;;;;;239.50;151.57;;;;;;;;;;5091810;28;20419;-54
2023/08/23 12:34:48;;;;;;;231.27;131.47;;;;;;;;;;5092263;28;20396;-55
2023/08/23 12:37:14;;;;;;;230.03;132.33;;;;;;;;;;5091904;28;20396;-54
2023/08/23 12:39:40;;;;;;;234.70;139.00;;;;;;;;;;5091660;28;20391;-54
2023/08/23 12:42:06;;;;;;;231.03;134.67;;;;;;;;;;5092044;28;20430;-54
2023/08/23 12:44:33;;;;;;;236.23;140.07;;;;;;;;;;5091856;28;20814;-55
2023/08/23 12:47:00;;;;;;;235.40;140.73;;;;;;;;;;5091774;28;20955;-54
2023/08/23 12:49:26;;;;;;;237.00;141.60;;;;;;;;;;5091560;28;20443;-54
2023/08/23 12:51:52;;;;;;;233.07;138.67;;;;;;;;;;5081948;28;20514;-54
2023/08/23 12:54:18;;;;;;;235.10;143.50;;;;;;;;;;5071515;28;20389;-54
2023/08/23 12:56:44;;;;;;;239.07;146.83;;;;;;;;;;5071468;28;20401;-54
2023/08/23 12:59:10;;;;;;;231.97;133.90;;;;;;;;;;5071624;28;20877;-54
2023/08/23 13:01:36;;;;;;;233.63;138.20;;;;;;;;;;5071234;28;20396;-54
2023/08/23 13:04:02;;;;;;;235.13;142.97;;;;;;;;;;5071316;28;20392;-55
2023/08/23 13:06:28;;;;;;;234.50;139.83;;;;;;;;;;5071443;28;20877;-53
2023/08/23 13:08:54;;;;;;;236.57;145.43;;;;;;;;;;5071314;28;20889;-53
2023/08/23 13:11:20;;;;;;;242.97;159.77;;;;;;;;;;5071054;28;20451;-54
2023/08/23 13:13:49;;;;;;;244.93;165.90;;;;;;;;;;5071293;28;20420;-54
2023/08/23 13:16:15;;;;;;;238.00;148.97;;;;;;;;;;5071499;28;20400;-55
2023/08/23 13:18:41;;;;;;;234.57;144.03;;;;;;;;;;5071221;28;20523;-54
2023/08/23 13:21:07;;;;;;;239.53;152.30;;;;;;;;;;5071045;28;20466;-53
2023/08/23 13:23:34;;;;;;;238.97;151.20;;;;;;;;;;5071066;28;20811;-54
2023/08/23 13:26:00;;;;;;;238.30;150.83;;;;;;;;;;5071089;28;20462;-53
2023/08/23 13:28:26;;;;;;;234.90;139.40;;;;;;;;;;5073869;28;20406;-54
2023/08/23 13:30:52;;;;;;;238.97;154.47;;;;;;;;;;5074622;28;20542;-55
2023/08/23 13:33:18;;;;;;;267.93;186.60;;;;;;;;;;5074667;28;20412;-54
2023/08/23 13:35:44;;;;;;;264.97;167.60;;;;;;;;;;5074836;28;20495;-54
2023/08/23 13:38:10;;;;;;;274.70;197.03;;;;;;;;;;5074785;28;20412;-54
2023/08/23 13:40:35;;;;;;;262.33;165.40;;;;;;;;;;5074498;28;20408;-55
2023/08/23 13:43:01;;;;;;;261.37;161.03;;;;;;;;;;5074812;28;20453;-54
2023/08/23 13:45:27;;;;;;;258.50;157.33;;;;;;;;;;5074626;28;20401;-54
2023/08/23 13:47:53;;;;;;;267.57;186.87;;;;;;;;;;5074510;28;20400;-54
2023/08/23 13:50:19;;;;;;;267.33;179.63;;;;;;;;;;5074196;28;20542;-55